Time;durP1;ratioP1;P1;durP2;ratioP2;P2;SDS_P1;SDS_P2;PMS_P1;PMS_P2;Temp;Humidity;BMP_temperature;BMP_pressure;BME280_temperature;BME280_humidity;BME280_pressure;Samples;Min_cycle;Max_cycle;Signal;HPM_P1;HPM_P2
2024/01/12 00:00:57;;;;;;;3.40;0.90;;;-0.40;99.90;;;;;;5061549;28;20124;-70
2024/01/12 00:03:23;;;;;;;4.18;1.10;;;-0.50;99.90;;;;;;5069939;28;20036;-71
2024/01/12 00:05:49;;;;;;;2.25;1.20;;;-0.50;99.90;;;;;;5079611;28;20040;-70
2024/01/12 00:08:14;;;;;;;2.10;1.40;;;-0.50;99.90;;;;;;5077361;28;20499;-71
2024/01/12 00:10:40;;;;;;;4.10;1.50;;;-0.50;99.90;;;;;;5080982;28;20031;-70
2024/01/12 00:13:08;;;;;;;8.10;1.80;;;-0.50;99.90;;;;;;5076224;28;20522;-70
2024/01/12 00:15:34;;;;;;;2.85;1.70;;;-0.40;99.90;;;;;;5084367;28;20414;-71
2024/01/12 00:18:00;;;;;;;2.10;1.35;;;-0.40;99.90;;;;;;5069188;28;20052;-70
2024/01/12 00:20:25;;;;;;;2.63;1.60;;;-0.30;99.90;;;;;;5064960;28;20052;-71
2024/01/12 00:22:51;;;;;;;3.22;1.70;;;-0.30;99.90;;;;;;5066814;28;20040;-70
2024/01/12 00:25:17;;;;;;;3.28;1.80;;;-0.30;99.90;;;;;;5065713;28;20039;-70
2024/01/12 00:27:42;;;;;;;2.22;1.42;;;-0.30;99.90;;;;;;5063720;28;20032;-69
2024/01/12 00:30:08;;;;;;;2.88;1.63;;;-0.30;99.90;;;;;;5062854;28;20033;-69
2024/01/12 00:32:37;;;;;;;3.03;1.65;;;-0.30;99.90;;;;;;5049147;28;20124;-69
2024/01/12 00:35:03;;;;;;;2.75;1.70;;;-0.30;99.90;;;;;;5058582;28;20111;-69
2024/01/12 00:37:29;;;;;;;3.00;1.70;;;-0.20;99.90;;;;;;5046632;28;20198;-69
2024/01/12 00:39:54;;;;;;;2.67;1.67;;;-0.20;99.90;;;;;;5049345;28;20109;-69
2024/01/12 00:42:20;;;;;;;2.60;1.73;;;-0.20;99.90;;;;;;5046418;28;20037;-69
2024/01/12 00:44:46;;;;;;;3.75;1.80;;;-0.30;99.90;;;;;;5047708;28;20037;-70
2024/01/12 00:47:12;;;;;;;2.85;1.85;;;-0.20;99.90;;;;;;5052420;28;20437;-69
2024/01/12 00:49:37;;;;;;;4.40;2.90;;;-0.20;99.90;;;;;;5053203;28;20041;-69
2024/01/12 00:52:03;;;;;;;4.63;2.75;;;-0.20;99.90;;;;;;5053109;28;20349;-69
2024/01/12 00:54:28;;;;;;;7.82;2.95;;;-0.20;99.90;;;;;;5044620;28;20270;-70
2024/01/12 00:56:54;;;;;;;5.20;2.67;;;-0.30;99.90;;;;;;5048445;28;20041;-69
2024/01/12 00:59:20;;;;;;;12.02;5.82;;;-0.30;99.90;;;;;;5046957;28;20041;-69
2024/01/12 01:01:45;;;;;;;38.47;16.48;;;-0.30;99.90;;;;;;5050576;28;20048;-68
2024/01/12 01:04:11;;;;;;;15.45;7.22;;;-0.30;99.90;;;;;;5047361;28;20068;-69
2024/01/12 01:06:36;;;;;;;10.98;5.10;;;-0.30;99.90;;;;;;5048790;28;20512;-69
2024/01/12 01:09:02;;;;;;;6.22;3.70;;;-0.30;99.90;;;;;;5046030;28;20041;-69
2024/01/12 01:11:28;;;;;;;8.82;4.32;;;-0.30;99.90;;;;;;5041303;28;20029;-69
2024/01/12 01:13:53;;;;;;;5.95;3.25;;;-0.40;99.90;;;;;;5050306;28;20032;-68
2024/01/12 01:16:20;;;;;;;6.95;3.95;;;-0.30;99.90;;;;;;5042490;28;20092;-69
2024/01/12 01:18:45;;;;;;;7.15;3.55;;;-0.30;99.90;;;;;;5053232;28;20044;-69
2024/01/12 01:21:11;;;;;;;6.80;2.97;;;-0.30;99.90;;;;;;5040519;28;20041;-68
2024/01/12 01:23:36;;;;;;;6.60;3.42;;;-0.20;99.90;;;;;;5046438;28;20044;-68
2024/01/12 01:26:02;;;;;;;9.32;4.88;;;-0.30;99.90;;;;;;5042440;28;20045;-70
2024/01/12 01:28:28;;;;;;;7.20;3.80;;;-0.30;99.90;;;;;;5046194;28;20500;-71
2024/01/12 01:30:53;;;;;;;8.15;4.03;;;-0.30;99.90;;;;;;5047172;28;20037;-69
2024/01/12 01:33:19;;;;;;;7.90;3.92;;;-0.30;99.90;;;;;;5042743;28;20040;-70
2024/01/12 01:35:45;;;;;;;9.32;4.40;;;-0.30;99.90;;;;;;5035293;28;20045;-69
2024/01/12 01:38:10;;;;;;;18.92;7.22;;;-0.30;99.90;;;;;;5034704;28;20131;-71
2024/01/12 01:40:36;;;;;;;13.48;6.53;;;-0.30;99.90;;;;;;5042722;28;22225;-69
2024/01/12 01:43:08;;;;;;;28.42;10.35;;;-0.30;99.90;;;;;;5039761;28;20082;-70
2024/01/12 01:45:36;;;;;;;17.60;7.55;;;-0.30;99.90;;;;;;5037851;28;20129;-70
2024/01/12 01:48:03;;;;;;;14.48;6.63;;;-0.30;99.90;;;;;;5037160;28;20047;-69
2024/01/12 01:50:29;;;;;;;11.27;6.03;;;-0.30;99.90;;;;;;5035209;28;20697;-69
2024/01/12 01:52:56;;;;;;;10.80;5.18;;;-0.30;99.90;;;;;;5039289;28;20052;-70
2024/01/12 01:55:22;;;;;;;7.10;4.35;;;-0.30;99.90;;;;;;5037066;28;20098;-69
2024/01/12 01:57:48;;;;;;;7.78;4.82;;;-0.40;99.90;;;;;;5042921;28;20052;-70
2024/01/12 02:00:13;;;;;;;8.07;4.75;;;-0.40;99.90;;;;;;5044633;28;20398;-69
2024/01/12 02:02:40;;;;;;;8.23;4.85;;;-0.40;99.90;;;;;;5046399;28;20112;-70
2024/01/12 02:05:10;;;;;;;22.58;10.00;;;-0.40;99.90;;;;;;5046337;28;20531;-69
2024/01/12 02:07:38;;;;;;;17.67;8.20;;;-0.40;99.90;;;;;;5047418;28;20603;-69
2024/01/12 02:10:06;;;;;;;9.20;5.28;;;-0.50;99.90;;;;;;5050252;28;20124;-69
2024/01/12 02:12:34;;;;;;;8.52;4.60;;;-0.60;99.90;;;;;;5047045;28;20056;-70
2024/01/12 02:15:00;;;;;;;8.25;4.32;;;-0.60;99.90;;;;;;5048454;28;20033;-69
2024/01/12 02:17:26;;;;;;;12.73;5.43;;;-0.70;99.90;;;;;;5046270;28;20063;-69
2024/01/12 02:19:58;;;;;;;10.32;5.88;;;-0.80;99.90;;;;;;5047198;28;20037;-70
2024/01/12 02:22:24;;;;;;;12.70;6.50;;;-0.80;99.90;;;;;;5045406;28;20049;-69
2024/01/12 02:24:50;;;;;;;10.75;5.25;;;-0.80;99.90;;;;;;5050476;28;20047;-70
2024/01/12 02:27:16;;;;;;;9.85;5.15;;;-0.80;99.90;;;;;;5051668;28;20041;-69
2024/01/12 02:29:42;;;;;;;17.67;7.55;;;-0.80;99.90;;;;;;5048544;28;20083;-69
2024/01/12 02:32:08;;;;;;;48.08;12.40;;;-0.80;99.90;;;;;;5047997;28;20413;-70
2024/01/12 02:34:34;;;;;;;38.20;18.23;;;-0.80;99.90;;;;;;5045359;28;20041;-70
2024/01/12 02:36:59;;;;;;;12.60;7.20;;;-0.80;99.90;;;;;;5047841;28;20040;-69
2024/01/12 02:39:25;;;;;;;10.27;5.00;;;-0.90;99.90;;;;;;5045975;28;20045;-70
2024/01/12 02:41:51;;;;;;;10.10;5.60;;;-0.90;99.90;;;;;;5047260;28;20552;-69
2024/01/12 02:44:16;;;;;;;6.50;3.67;;;-0.90;99.90;;;;;;5047376;28;20090;-70
2024/01/12 02:46:42;;;;;;;10.02;4.97;;;-0.90;99.90;;;;;;5046369;28;20627;-70
2024/01/12 02:49:08;;;;;;;16.45;4.88;;;-1.00;99.90;;;;;;5045714;28;20094;-70
2024/01/12 02:51:34;;;;;;;8.40;4.80;;;-1.00;99.90;;;;;;5044886;28;20045;-70
2024/01/12 02:53:59;;;;;;;10.27;4.65;;;-1.00;99.90;;;;;;5038868;28;20048;-70
2024/01/12 02:56:25;;;;;;;9.60;4.95;;;-1.00;99.90;;;;;;5047509;28;20048;-70
2024/01/12 02:58:51;;;;;;;10.02;5.40;;;-1.00;99.90;;;;;;5048512;28;20033;-70
2024/01/12 03:01:21;;;;;;;6.60;3.50;;;-1.00;99.90;;;;;;5049835;28;20059;-70
2024/01/12 03:03:46;;;;;;;6.88;3.67;;;-1.00;99.90;;;;;;5045650;28;20074;-71
2024/01/12 03:06:12;;;;;;;6.90;4.03;;;-1.10;99.90;;;;;;5052848;28;20037;-70
2024/01/12 03:08:37;;;;;;;7.43;4.10;;;-1.00;99.90;;;;;;5046052;28;20569;-70
2024/01/12 03:11:03;;;;;;;5.90;3.28;;;-1.00;99.90;;;;;;5045384;28;20033;-70
2024/01/12 03:13:29;;;;;;;8.55;3.95;;;-1.00;99.90;;;;;;5043477;28;20112;-69
2024/01/12 03:15:54;;;;;;;6.35;3.70;;;-0.90;99.90;;;;;;5044442;28;20040;-69
2024/01/12 03:18:20;;;;;;;5.18;2.90;;;-0.90;99.90;;;;;;5044571;28;20017;-72
2024/01/12 03:20:45;;;;;;;7.85;3.38;;;-0.90;99.90;;;;;;5045331;28;20037;-69
2024/01/12 03:23:11;;;;;;;6.68;3.70;;;-0.90;99.90;;;;;;5045524;28;20652;-70
2024/01/12 03:25:37;;;;;;;8.45;3.67;;;-0.90;99.90;;;;;;5045644;28;20672;-70
2024/01/12 03:28:02;;;;;;;6.50;3.88;;;-0.90;99.90;;;;;;5045627;28;20033;-70
2024/01/12 03:30:28;;;;;;;6.93;4.03;;;-0.90;99.90;;;;;;5039949;28;20037;-70
2024/01/12 03:32:53;;;;;;;5.85;3.92;;;-0.90;99.90;;;;;;5046345;28;20041;-70
2024/01/12 03:35:19;;;;;;;5.72;3.25;;;-0.90;99.90;;;;;;5046049;28;20033;-69
2024/01/12 03:37:45;;;;;;;5.68;3.03;;;-0.90;99.90;;;;;;5048867;28;20072;-69
2024/01/12 03:40:11;;;;;;;6.18;3.70;;;-0.90;99.90;;;;;;5046213;28;20412;-70
2024/01/12 03:42:37;;;;;;;7.15;3.95;;;-0.90;99.90;;;;;;5045610;28;20495;-69
2024/01/12 03:45:03;;;;;;;5.90;3.50;;;-0.90;99.90;;;;;;5046906;28;20061;-69
2024/01/12 03:47:29;;;;;;;6.10;3.63;;;-0.90;99.90;;;;;;5042556;28;20045;-71
2024/01/12 03:49:54;;;;;;;5.68;3.40;;;-0.90;99.90;;;;;;5046901;28;20511;-69
2024/01/12 03:52:20;;;;;;;7.22;4.03;;;-0.90;99.90;;;;;;5045603;28;20098;-69
2024/01/12 03:54:45;;;;;;;5.75;3.72;;;-0.80;99.90;;;;;;5049196;28;20040;-70
2024/01/12 03:57:11;;;;;;;5.72;3.38;;;-0.90;99.90;;;;;;5049700;28;20340;-70
2024/01/12 03:59:37;;;;;;;5.82;3.22;;;-0.90;99.90;;;;;;5050165;28;20120;-70
2024/01/12 04:02:03;;;;;;;6.00;3.78;;;-0.90;99.90;;;;;;5048441;28;20037;-70
2024/01/12 04:04:28;;;;;;;5.35;3.10;;;-0.90;99.90;;;;;;5048039;28;20091;-69
2024/01/12 04:06:54;;;;;;;7.05;4.07;;;-0.80;99.90;;;;;;5049068;28;20033;-70
2024/01/12 04:09:19;;;;;;;5.53;3.25;;;-0.80;99.90;;;;;;5047287;28;20047;-70
2024/01/12 04:11:45;;;;;;;6.68;3.08;;;-0.80;99.90;;;;;;5049210;28;20076;-70
2024/01/12 04:14:10;;;;;;;5.93;3.08;;;-0.80;99.90;;;;;;5049000;28;20460;-70
2024/01/12 04:16:36;;;;;;;5.15;3.03;;;-0.80;99.90;;;;;;5050262;28;20040;-70
2024/01/12 04:19:01;;;;;;;3.67;2.50;;;-0.80;99.90;;;;;;5049255;28;20036;-69
2024/01/12 04:21:27;;;;;;;4.82;2.63;;;-0.90;99.90;;;;;;5049790;28;20037;-69
2024/01/12 04:23:53;;;;;;;4.95;2.50;;;-0.90;99.90;;;;;;5047976;28;20041;-70
2024/01/12 04:26:18;;;;;;;4.85;2.63;;;-0.90;99.90;;;;;;5049146;28;20381;-71
2024/01/12 04:28:44;;;;;;;4.32;2.75;;;-0.90;99.90;;;;;;5049481;28;20064;-70
2024/01/12 04:31:10;;;;;;;3.90;2.58;;;-0.80;99.90;;;;;;5053112;28;20588;-70
2024/01/12 04:33:35;;;;;;;5.03;2.97;;;-0.90;99.90;;;;;;5047568;28;20131;-69
2024/01/12 04:36:01;;;;;;;4.70;3.10;;;-0.90;99.90;;;;;;5049318;28;20041;-69
2024/01/12 04:38:27;;;;;;;5.55;3.03;;;-1.00;99.90;;;;;;5046770;28;20524;-69
2024/01/12 04:40:54;;;;;;;6.45;2.95;;;-0.90;99.90;;;;;;5048030;28;20033;-69
2024/01/12 04:43:20;;;;;;;3.67;2.45;;;-0.90;99.90;;;;;;5049248;28;20088;-69
2024/01/12 04:45:46;;;;;;;6.68;2.83;;;-0.90;99.90;;;;;;5051107;28;20049;-71
2024/01/12 04:48:11;;;;;;;7.20;2.90;;;-0.90;99.90;;;;;;5048758;28;20047;-69
2024/01/12 04:50:37;;;;;;;5.97;2.72;;;-0.90;99.90;;;;;;5047851;28;20045;-72
2024/01/12 04:53:03;;;;;;;3.28;2.20;;;-0.90;99.90;;;;;;5046443;28;20040;-70
2024/01/12 04:55:29;;;;;;;4.90;2.60;;;-1.00;99.90;;;;;;5046781;28;20036;-70
2024/01/12 04:57:55;;;;;;;5.78;2.70;;;-0.90;99.90;;;;;;5047889;28;20040;-69
2024/01/12 05:00:21;;;;;;;4.35;2.55;;;-1.00;99.90;;;;;;5048918;28;20036;-69
2024/01/12 05:02:46;;;;;;;4.95;2.97;;;-1.00;99.90;;;;;;5047618;28;20706;-70
2024/01/12 05:05:12;;;;;;;4.70;2.92;;;-1.00;99.90;;;;;;5048972;28;20083;-70
2024/01/12 05:07:38;;;;;;;3.92;2.53;;;-1.00;99.90;;;;;;5046551;28;20040;-69
2024/01/12 05:10:05;;;;;;;5.07;2.80;;;-1.00;99.90;;;;;;5049336;28;20114;-70
2024/01/12 05:12:31;;;;;;;5.05;2.95;;;-1.00;99.90;;;;;;5051987;28;20044;-69
2024/01/12 05:14:56;;;;;;;6.00;3.20;;;-1.00;99.90;;;;;;5050577;28;20040;-70
2024/01/12 05:17:23;;;;;;;6.35;3.28;;;-1.00;99.90;;;;;;5047246;28;20045;-70
2024/01/12 05:19:49;;;;;;;5.32;3.08;;;-1.00;99.90;;;;;;5049525;28;20056;-70
2024/01/12 05:22:15;;;;;;;7.20;3.75;;;-1.10;99.90;;;;;;5045501;28;20720;-69
2024/01/12 05:24:40;;;;;;;6.95;3.38;;;-1.00;99.90;;;;;;5050709;28;20132;-70
2024/01/12 05:27:07;;;;;;;8.57;3.63;;;-1.00;99.90;;;;;;5043657;28;20489;-70
2024/01/12 05:29:36;;;;;;;6.60;3.10;;;-1.00;99.90;;;;;;5048346;28;20436;-70
2024/01/12 05:32:02;;;;;;;7.15;3.35;;;-1.00;99.90;;;;;;5046130;28;20470;-69
2024/01/12 05:34:27;;;;;;;6.32;3.20;;;-0.90;99.90;;;;;;5049624;28;20118;-70
2024/01/12 05:36:53;;;;;;;6.53;3.60;;;-0.80;99.90;;;;;;5047622;28;20059;-70
2024/01/12 05:39:19;;;;;;;6.50;3.70;;;-0.80;99.90;;;;;;5048828;28;20041;-70
2024/01/12 05:41:44;;;;;;;7.05;3.83;;;-0.80;99.90;;;;;;5048224;28;20067;-69
2024/01/12 05:44:10;;;;;;;6.65;3.70;;;-0.80;99.90;;;;;;5044993;28;20094;-70
2024/01/12 05:46:35;;;;;;;8.52;3.70;;;-0.90;99.90;;;;;;5048290;28;20045;-69
2024/01/12 05:49:04;;;;;;;10.00;4.18;;;-1.00;99.90;;;;;;5046460;28;20579;-70
2024/01/12 05:51:30;;;;;;;6.82;3.90;;;-1.00;99.90;;;;;;5046919;28;20045;-70
2024/01/12 05:53:56;;;;;;;5.88;3.00;;;-1.00;99.90;;;;;;5042187;28;20073;-69
2024/01/12 05:56:22;;;;;;;8.48;3.25;;;-1.00;99.90;;;;;;5047317;28;20597;-69
2024/01/12 05:58:48;;;;;;;7.32;3.72;;;-1.00;99.90;;;;;;5046312;28;20444;-69
2024/01/12 06:01:13;;;;;;;5.78;3.28;;;-1.00;99.90;;;;;;5046099;28;20033;-70
2024/01/12 06:03:39;;;;;;;4.97;2.65;;;-0.90;99.90;;;;;;5045584;28;20056;-72
2024/01/12 06:06:05;;;;;;;5.05;2.58;;;-0.90;99.90;;;;;;5044588;28;20643;-70
2024/01/12 06:08:30;;;;;;;6.22;2.55;;;-0.90;99.90;;;;;;5045790;28;20492;-70
2024/01/12 06:10:56;;;;;;;4.03;2.40;;;-1.00;99.90;;;;;;5045962;28;20072;-70
2024/01/12 06:13:21;;;;;;;5.20;2.80;;;-1.00;99.90;;;;;;5053554;28;20044;-69
2024/01/12 06:15:47;;;;;;;5.32;2.47;;;-1.10;99.90;;;;;;5045467;28;20768;-69
2024/01/12 06:18:12;;;;;;;6.00;3.05;;;-1.10;99.90;;;;;;5049436;28;20036;-70
2024/01/12 06:20:38;;;;;;;5.75;3.40;;;-1.10;99.90;;;;;;5050206;28;20037;-70
2024/01/12 06:23:05;;;;;;;11.55;3.83;;;-1.10;99.90;;;;;;5045351;28;20052;-70
2024/01/12 06:25:36;;;;;;;5.38;2.70;;;-1.10;99.90;;;;;;5047369;28;20044;-69
2024/01/12 06:28:02;;;;;;;6.68;3.42;;;-1.10;99.90;;;;;;5045190;28;20045;-70
2024/01/12 06:30:28;;;;;;;6.28;3.13;;;-1.10;99.90;;;;;;5046171;28;20033;-70
2024/01/12 06:32:53;;;;;;;6.82;3.65;;;-1.20;99.90;;;;;;5049521;28;20056;-69
2024/01/12 06:35:19;;;;;;;6.80;3.33;;;-1.10;99.90;;;;;;5046697;28;20041;-69
2024/01/12 06:37:45;;;;;;;5.30;2.92;;;-1.10;99.90;;;;;;5047102;28;20045;-69
2024/01/12 06:40:11;;;;;;;7.93;3.15;;;-1.00;99.90;;;;;;5046813;28;20086;-70
2024/01/12 06:42:37;;;;;;;7.15;3.60;;;-1.00;99.90;;;;;;5045399;28;20148;-69
2024/01/12 06:45:06;;;;;;;7.57;3.53;;;-0.90;99.90;;;;;;5050231;28;20033;-69
2024/01/12 06:47:32;;;;;;;6.55;3.50;;;-1.00;99.90;;;;;;5041028;28;20045;-71
2024/01/12 06:49:57;;;;;;;4.78;3.03;;;-1.00;99.90;;;;;;5046523;28;20047;-69
2024/01/12 06:52:23;;;;;;;8.35;3.95;;;-0.90;99.90;;;;;;5046030;28;20033;-70
2024/01/12 06:54:48;;;;;;;8.40;4.10;;;-1.00;99.90;;;;;;5046897;28;20079;-70
2024/01/12 06:57:14;;;;;;;11.32;4.65;;;-1.00;99.90;;;;;;5046723;28;20049;-70
2024/01/12 06:59:39;;;;;;;18.75;9.98;;;-1.10;99.90;;;;;;5049595;28;20140;-70
2024/01/12 07:02:05;;;;;;;8.10;4.30;;;-1.10;99.90;;;;;;5049434;28;20040;-69
2024/01/12 07:04:31;;;;;;;15.52;8.27;;;-1.00;99.90;;;;;;5046966;28;20540;-70
2024/01/12 07:06:56;;;;;;;8.85;4.90;;;-1.00;99.90;;;;;;5051493;28;20127;-69
2024/01/12 07:09:22;;;;;;;11.50;4.13;;;-1.00;99.90;;;;;;5046464;28;20120;-69
2024/01/12 07:11:48;;;;;;;9.90;3.92;;;-0.90;99.90;;;;;;5046457;28;20412;-70
2024/01/12 07:14:14;;;;;;;11.50;4.45;;;-1.00;99.90;;;;;;5045444;28;20044;-70
2024/01/12 07:16:40;;;;;;;10.30;4.68;;;-1.00;99.90;;;;;;5045633;28;20041;-70
2024/01/12 07:19:06;;;;;;;6.82;3.80;;;-0.90;99.90;;;;;;5045405;28;20045;-70
2024/01/12 07:21:32;;;;;;;8.07;3.88;;;-0.90;99.90;;;;;;5047063;28;20122;-69
2024/01/12 07:23:58;;;;;;;8.15;4.03;;;-0.90;99.90;;;;;;5046401;28;20044;-70
2024/01/12 07:26:24;;;;;;;7.55;3.92;;;-0.80;99.90;;;;;;5046427;28;20049;-69
2024/01/12 07:28:49;;;;;;;8.10;3.80;;;-0.80;99.90;;;;;;5043577;28;21060;-72
2024/01/12 07:31:15;;;;;;;16.63;4.20;;;-0.90;99.90;;;;;;5045111;28;20037;-70
2024/01/12 07:33:41;;;;;;;8.45;3.92;;;-0.80;99.90;;;;;;5046528;28;20041;-69
2024/01/12 07:36:07;;;;;;;16.15;5.43;;;-0.80;99.90;;;;;;5046674;28;20047;-70
2024/01/12 07:38:33;;;;;;;6.78;3.20;;;-0.90;99.90;;;;;;5050039;28;20178;-69
2024/01/12 07:40:59;;;;;;;9.65;3.90;;;-0.90;99.90;;;;;;5051342;28;20536;-69
2024/01/12 07:43:27;;;;;;;10.57;4.00;;;-0.90;99.90;;;;;;5047739;28;20056;-69
2024/01/12 07:45:55;;;;;;;9.52;5.10;;;-1.00;99.90;;;;;;5048766;28;20045;-69
2024/01/12 07:48:20;;;;;;;11.10;4.35;;;-1.00;99.90;;;;;;5049090;28;20028;-69
2024/01/12 07:50:46;;;;;;;8.70;4.03;;;-1.00;99.90;;;;;;5049909;28;20044;-68
2024/01/12 07:53:12;;;;;;;9.23;4.22;;;-0.90;99.90;;;;;;5049079;28;20517;-68
2024/01/12 08:01:14;;;;;;;11.88;5.13;;;-0.80;99.90;;;;;;4964687;28;20090;-66
2024/01/12 08:03:44;;;;;;;9.93;5.05;;;-0.80;99.90;;;;;;4987333;28;20038;-68
2024/01/12 08:06:10;;;;;;;15.35;5.65;;;-0.80;99.90;;;;;;5023258;23;20057;-69
2024/01/12 08:08:41;;;;;;;41.05;6.88;;;-0.80;99.90;;;;;;5022654;28;20199;-70
2024/01/12 08:11:07;;;;;;;17.08;4.72;;;-0.90;99.90;;;;;;5029783;28;20037;-68
2024/01/12 08:13:32;;;;;;;16.98;5.82;;;-0.90;99.90;;;;;;5020221;28;20392;-70
2024/01/12 08:15:58;;;;;;;9.25;4.57;;;-0.90;99.90;;;;;;5026169;28;20128;-68
2024/01/12 08:18:24;;;;;;;13.32;5.60;;;-0.80;99.90;;;;;;5026582;28;20182;-68
2024/01/12 08:20:50;;;;;;;9.98;5.07;;;-0.80;99.90;;;;;;5023507;23;20054;-70
2024/01/12 08:23:16;;;;;;;10.05;5.03;;;-0.70;99.90;;;;;;5007064;28;20489;-66
2024/01/12 08:25:42;;;;;;;17.38;5.78;;;-0.60;99.90;;;;;;5004686;28;20033;-67
2024/01/12 08:28:07;;;;;;;9.05;5.03;;;-0.60;99.90;;;;;;5014605;28;20045;-69
2024/01/12 08:30:34;;;;;;;9.65;4.38;;;-0.60;99.90;;;;;;4995005;28;20140;-69
2024/01/12 08:33:00;;;;;;;42.88;5.50;;;-0.60;99.90;;;;;;5030837;28;20040;-68
2024/01/12 08:35:26;;;;;;;22.58;5.78;;;-0.60;99.90;;;;;;5022883;28;20041;-68
2024/01/12 08:37:52;;;;;;;15.50;5.35;;;-0.80;99.90;;;;;;5032058;28;20030;-66
2024/01/12 08:40:17;;;;;;;20.23;6.30;;;-0.90;99.90;;;;;;5022866;28;20101;-69
2024/01/12 08:42:43;;;;;;;25.48;5.90;;;-0.90;99.90;;;;;;5032224;28;20017;-70
2024/01/12 08:45:12;;;;;;;123.97;8.65;;;-0.80;99.90;;;;;;5028571;28;20128;-70
2024/01/12 08:47:38;;;;;;;13.93;5.38;;;-1.00;99.90;;;;;;5030618;28;20044;-69
2024/01/12 08:50:04;;;;;;;12.65;6.15;;;-1.00;99.90;;;;;;5026636;28;20034;-69
2024/01/12 08:52:30;;;;;;;22.63;6.47;;;-0.90;99.90;;;;;;5029121;28;20069;-69
2024/01/12 08:54:55;;;;;;;13.10;6.03;;;-0.90;99.90;;;;;;5026522;28;20069;-68
2024/01/12 08:57:21;;;;;;;22.08;6.28;;;-0.80;99.90;;;;;;5031064;28;20044;-68
2024/01/12 08:59:47;;;;;;;26.15;7.40;;;-0.70;99.90;;;;;;5024650;28;20037;-67
2024/01/12 09:02:12;;;;;;;18.45;6.47;;;-0.80;99.90;;;;;;5027607;28;20467;-68
2024/01/12 09:04:38;;;;;;;41.45;7.65;;;-0.80;99.90;;;;;;5027025;28;20034;-68
2024/01/12 09:07:04;;;;;;;45.50;8.40;;;-0.80;99.90;;;;;;5029700;28;20049;-66
2024/01/12 09:09:29;;;;;;;24.95;6.88;;;-0.90;99.90;;;;;;5025882;28;20076;-67
2024/01/12 09:11:55;;;;;;;14.10;5.70;;;-0.90;99.90;;;;;;5031139;28;20449;-67
2024/01/12 09:14:20;;;;;;;13.55;6.38;;;-0.90;99.90;;;;;;5028464;28;20091;-69
2024/01/12 09:16:46;;;;;;;52.60;8.25;;;-0.70;99.90;;;;;;5030911;28;20038;-67
2024/01/12 09:19:12;;;;;;;43.15;5.57;;;-0.70;99.90;;;;;;5025566;28;20522;-67
2024/01/12 09:21:38;;;;;;;30.42;5.63;;;-0.80;99.90;;;;;;5028807;28;20096;-68
2024/01/12 09:24:04;;;;;;;16.15;5.72;;;-0.80;99.90;;;;;;5018704;28;20041;-69
2024/01/12 09:26:30;;;;;;;16.77;5.65;;;-0.70;99.90;;;;;;5027211;28;20069;-68
2024/01/12 09:28:56;;;;;;;13.40;5.43;;;-0.60;99.90;;;;;;5026539;28;20064;-68
2024/01/12 09:31:21;;;;;;;12.60;6.13;;;-0.60;99.90;;;;;;5033759;28;20049;-67
2024/01/12 09:33:47;;;;;;;24.38;5.65;;;-0.50;99.90;;;;;;5027336;28;20013;-67
2024/01/12 09:36:12;;;;;;;11.90;5.82;;;-0.60;99.90;;;;;;5026152;28;20037;-68
2024/01/12 09:38:38;;;;;;;9.20;5.03;;;-0.60;99.90;;;;;;5028171;28;20060;-68
2024/01/12 09:41:07;;;;;;;12.23;6.32;;;-0.50;99.90;;;;;;5027452;28;20045;-68
2024/01/12 09:43:35;;;;;;;14.25;5.53;;;-0.50;99.90;;;;;;5028597;28;20049;-70
2024/01/12 09:46:06;;;;;;;17.10;5.80;;;-0.50;99.90;;;;;;5024909;28;20106;-69
2024/01/12 09:48:33;;;;;;;17.52;5.50;;;-0.40;99.90;;;;;;5025514;28;20041;-69
2024/01/12 09:51:00;;;;;;;11.45;5.50;;;-0.40;99.90;;;;;;5030023;28;20142;-69
2024/01/12 09:53:26;;;;;;;9.27;4.93;;;-0.40;99.90;;;;;;5029324;28;20041;-69
2024/01/12 09:55:51;;;;;;;9.00;4.28;;;-0.30;99.90;;;;;;5011032;28;20054;-68
2024/01/12 09:58:19;;;;;;;10.20;4.10;;;-0.20;99.90;;;;;;5027366;28;20033;-69
2024/01/12 10:00:47;;;;;;;9.02;4.25;;;-0.10;99.90;;;;;;5026157;28;20108;-69
2024/01/12 10:03:14;;;;;;;7.30;4.03;;;0.00;99.90;;;;;;5030280;28;20045;-69
2024/01/12 10:05:41;;;;;;;9.18;4.40;;;0.10;99.90;;;;;;5025659;28;20051;-68
2024/01/12 10:08:10;;;;;;;12.35;5.70;;;0.20;99.90;;;;;;5028178;28;20049;-68
2024/01/12 10:10:38;;;;;;;10.13;4.88;;;0.10;99.90;;;;;;5024411;28;20048;-68
2024/01/12 10:13:04;;;;;;;14.05;5.47;;;0.20;99.90;;;;;;5030468;28;20123;-68
2024/01/12 10:15:30;;;;;;;8.43;4.57;;;0.20;99.90;;;;;;5022106;28;20489;-68
2024/01/12 10:17:56;;;;;;;9.88;4.25;;;0.40;99.90;;;;;;5025590;28;20038;-68
2024/01/12 10:20:22;;;;;;;7.18;4.07;;;0.30;99.90;;;;;;5035349;22;20584;-69
2024/01/12 10:22:57;;;;;;;7.97;4.03;;;0.30;99.90;;;;;;5039428;28;20042;-69
2024/01/12 10:25:23;;;;;;;6.38;3.83;;;0.50;99.90;;;;;;5033074;28;20045;-68
2024/01/12 10:27:58;;;;;;;7.38;3.65;;;0.60;99.90;;;;;;5032717;28;20059;-69
2024/01/12 10:30:26;;;;;;;6.40;3.55;;;0.70;99.90;;;;;;5055168;28;20119;-69
2024/01/12 10:32:53;;;;;;;6.63;3.80;;;0.70;99.90;;;;;;5051830;28;20052;-69
2024/01/12 10:35:22;;;;;;;8.40;3.78;;;0.60;99.90;;;;;;5049420;28;20056;-68
2024/01/12 10:37:49;;;;;;;8.80;3.78;;;0.60;99.90;;;;;;5053831;28;20037;-68
2024/01/12 10:40:18;;;;;;;6.57;3.60;;;0.70;99.90;;;;;;5046744;28;20045;-69
2024/01/12 10:42:49;;;;;;;5.15;2.60;;;0.80;99.90;;;;;;5053270;28;20107;-68
2024/01/12 10:45:22;;;;;;;5.50;2.90;;;0.90;99.90;;;;;;5036368;28;20119;-69
2024/01/12 10:47:59;;;;;;;4.80;2.80;;;1.00;99.90;;;;;;5055442;28;20075;-68
2024/01/12 10:50:25;;;;;;;4.80;3.17;;;1.00;99.90;;;;;;5057369;28;20059;-68
2024/01/12 10:53:06;;;;;;;4.57;2.78;;;0.70;99.90;;;;;;5059474;28;20040;-68
2024/01/12 10:55:36;;;;;;;4.53;2.50;;;0.50;99.90;;;;;;5055793;28;20041;-68
2024/01/12 10:58:03;;;;;;;5.55;2.47;;;0.40;99.90;;;;;;5063413;28;20033;-68
2024/01/12 11:00:33;;;;;;;4.20;2.63;;;0.50;99.90;;;;;;5058462;28;20059;-68
2024/01/12 11:03:02;;;;;;;4.95;2.78;;;0.70;99.90;;;;;;5056120;28;20369;-68
2024/01/12 11:05:29;;;;;;;3.00;1.95;;;1.00;99.90;;;;;;5059335;28;20048;-68
2024/01/12 11:08:00;;;;;;;4.90;2.38;;;1.10;99.90;;;;;;5069421;28;20044;-68
2024/01/12 11:10:27;;;;;;;3.40;2.20;;;1.00;99.90;;;;;;5057057;28;20041;-69
2024/01/12 11:12:54;;;;;;;3.50;2.30;;;1.10;99.90;;;;;;5060783;28;20041;-68
2024/01/12 11:15:20;;;;;;;4.00;2.08;;;1.20;99.90;;;;;;5055422;28;20087;-68
2024/01/12 11:17:45;;;;;;;4.75;2.75;;;1.30;99.90;;;;;;5059180;28;20045;-68
2024/01/12 11:20:17;;;;;;;3.55;2.08;;;1.20;99.90;;;;;;5057888;28;20065;-69
2024/01/12 11:22:45;;;;;;;6.30;2.90;;;1.30;99.90;;;;;;5059990;28;20037;-68
2024/01/12 11:25:12;;;;;;;4.97;2.35;;;0.90;99.90;;;;;;5053967;28;20040;-68
2024/01/12 11:27:40;;;;;;;4.18;2.63;;;0.80;99.90;;;;;;5068340;28;20040;-68
2024/01/12 11:30:09;;;;;;;5.13;3.10;;;0.60;99.90;;;;;;5056031;28;20044;-68
2024/01/12 11:32:35;;;;;;;3.58;2.40;;;0.50;99.90;;;;;;5055049;28;20049;-69
2024/01/12 11:35:18;;;;;;;13.50;6.75;;;0.70;99.90;;;;;;5059142;28;20041;-69
2024/01/12 11:37:59;;;;;;;8.52;4.07;;;0.70;99.90;;;;;;5058321;28;20423;-68
2024/01/12 11:40:25;;;;;;;6.18;3.08;;;0.80;99.90;;;;;;5060101;28;20527;-71
2024/01/12 11:42:52;;;;;;;3.83;2.33;;;0.90;99.90;;;;;;5067113;28;20048;-70
2024/01/12 11:45:18;;;;;;;4.03;2.53;;;1.00;99.90;;;;;;5059307;28;20458;-69
2024/01/12 11:47:44;;;;;;;4.95;2.50;;;1.30;99.90;;;;;;5063156;28;20048;-69
2024/01/12 11:50:15;;;;;;;4.70;2.63;;;1.30;99.90;;;;;;5058673;28;20069;-69
2024/01/12 11:52:41;;;;;;;3.88;2.67;;;1.30;99.90;;;;;;5056186;28;20045;-68
2024/01/12 11:55:09;;;;;;;3.30;2.03;;;1.30;99.90;;;;;;5053793;28;20051;-68
2024/01/12 11:57:38;;;;;;;5.30;2.60;;;1.30;99.90;;;;;;5052994;28;20055;-68
2024/01/12 12:00:06;;;;;;;5.20;2.80;;;1.40;99.90;;;;;;5061802;28;20790;-69
2024/01/12 12:02:35;;;;;;;3.65;2.70;;;1.40;99.90;;;;;;5041446;28;20064;-68
2024/01/12 12:05:07;;;;;;;4.20;2.75;;;1.40;99.90;;;;;;5056013;28;20045;-68
2024/01/12 12:07:36;;;;;;;4.13;2.70;;;1.40;99.90;;;;;;5061142;28;20079;-68
2024/01/12 12:10:02;;;;;;;3.83;2.67;;;1.40;99.90;;;;;;5058308;28;20041;-69
2024/01/12 12:12:27;;;;;;;5.03;3.10;;;1.40;99.90;;;;;;5067300;28;20043;-68
2024/01/12 12:15:09;;;;;;;5.18;3.05;;;1.40;99.90;;;;;;5064062;28;20036;-68
2024/01/12 12:17:44;;;;;;;4.18;2.45;;;1.40;99.90;;;;;;5041481;28;20040;-69
2024/01/12 12:20:11;;;;;;;6.60;3.17;;;1.30;99.90;;;;;;5057043;28;20052;-68
2024/01/12 12:22:44;;;;;;;5.35;3.00;;;1.30;99.90;;;;;;5064462;28;20055;-69
2024/01/12 12:25:14;;;;;;;4.75;2.55;;;1.20;99.90;;;;;;5055450;28;20037;-68
2024/01/12 12:27:45;;;;;;;5.00;2.60;;;1.20;99.90;;;;;;5059027;28;20047;-68
2024/01/12 12:30:13;;;;;;;5.32;3.40;;;1.10;99.90;;;;;;5037793;28;20076;-69
2024/01/12 12:32:44;;;;;;;5.45;3.78;;;1.10;99.90;;;;;;5062679;28;20046;-71
2024/01/12 12:35:13;;;;;;;5.88;2.95;;;0.90;99.90;;;;;;5055277;28;20036;-69
2024/01/12 12:37:40;;;;;;;8.38;3.40;;;0.90;99.90;;;;;;5059738;22;20139;-71
2024/01/12 12:40:09;;;;;;;5.78;3.42;;;0.70;99.90;;;;;;5038149;28;20060;-70
2024/01/12 12:42:35;;;;;;;6.78;3.45;;;0.80;99.90;;;;;;5051784;28;20095;-68
2024/01/12 12:45:00;;;;;;;5.93;3.25;;;0.70;99.90;;;;;;5048100;28;21298;-67
2024/01/12 12:47:26;;;;;;;5.72;2.88;;;0.60;99.90;;;;;;5051661;28;20535;-67